createdAt,value
2023-04-18T00:01:23.780Z,101971.69
2023-04-18T00:03:50.932Z,101962.41
2023-04-18T00:06:17.674Z,101973.31
2023-04-18T00:08:44.219Z,101972.91
2023-04-18T00:11:10.787Z,101967.59
2023-04-18T00:13:39.347Z,101963.09
2023-04-18T00:16:07.724Z,101967.50
2023-04-18T00:18:36.807Z,101975.34
2023-04-18T00:21:04.363Z,101965.41
2023-04-18T00:23:31.136Z,101965.31
2023-04-18T00:25:57.723Z,101958.31
2023-04-18T00:28:24.472Z,101947.94
2023-04-18T00:30:51.423Z,101954.75
2023-04-18T00:33:18.314Z,101959.78
2023-04-18T00:35:45.043Z,101958.50
2023-04-18T00:38:11.632Z,101963.31
2023-04-18T00:40:40.999Z,101959.75
2023-04-18T00:43:08.439Z,101965.63
2023-04-18T00:45:35.412Z,101965.31
2023-04-18T00:48:02.106Z,101967.66
2023-04-18T00:50:28.868Z,101952.59
2023-04-18T00:52:55.847Z,101956.81
2023-04-18T00:55:23.890Z,101960.16
2023-04-18T00:57:50.962Z,101959.56
2023-04-18T01:00:18.118Z,101964.03
2023-04-18T01:02:44.925Z,101963.22
2023-04-18T01:05:14.585Z,101963.38
2023-04-18T01:07:41.535Z,101964.44
2023-04-18T01:10:13.045Z,101962.59
2023-04-18T01:12:40.697Z,101957.13
2023-04-18T01:15:08.031Z,101951.09
2023-04-18T01:17:36.266Z,101959.81
2023-04-18T01:20:05.966Z,101956.03
2023-04-18T01:22:33.288Z,101957.41
2023-04-18T01:24:59.946Z,101956.09
2023-04-18T01:27:26.509Z,101952.16
2023-04-18T01:29:53.107Z,101942.56
2023-04-18T01:32:21.496Z,101944.41
2023-04-18T01:34:48.079Z,101938.13
2023-04-18T01:37:14.643Z,101949.47
2023-04-18T01:39:41.227Z,101951.81
2023-04-18T01:42:07.920Z,101956.09
2023-04-18T01:44:34.442Z,101946.03
2023-04-18T01:47:01.172Z,101946.56
2023-04-18T01:49:27.826Z,101948.25
2023-04-18T01:51:54.524Z,101950.53
2023-04-18T01:54:21.366Z,101939.09
2023-04-18T01:56:47.929Z,101938.28
2023-04-18T01:59:14.528Z,101946.63
2023-04-18T02:01:41.166Z,101947.03
2023-04-18T02:04:07.794Z,101937.09
2023-04-18T02:06:34.439Z,101945.53
2023-04-18T02:09:01.067Z,101939.09
2023-04-18T02:11:27.670Z,101935.41
2023-04-18T02:13:54.220Z,101938.59
2023-04-18T02:16:20.875Z,101933.53
2023-04-18T02:18:47.525Z,101941.13
2023-04-18T02:21:14.152Z,101933.88
2023-04-18T02:23:40.728Z,101938.59
2023-04-18T02:26:07.328Z,101939.91
2023-04-18T02:28:33.902Z,101937.97
2023-04-18T02:31:03.039Z,101941.38
2023-04-18T02:33:29.682Z,101941.03
2023-04-18T02:35:56.324Z,101940.16
2023-04-18T02:38:22.887Z,101931.69
2023-04-18T02:40:51.883Z,101934.00
2023-04-18T02:43:20.390Z,101941.75
2023-04-18T02:45:47.037Z,101927.03
2023-04-18T02:48:14.530Z,101935.28
2023-04-18T02:50:41.304Z,101933.16
2023-04-18T02:53:07.914Z,101940.66
2023-04-18T02:55:48.926Z,101939.59
2023-04-18T02:58:16.129Z,101941.28
2023-04-18T03:01:12.663Z,101944.06
2023-04-18T03:03:53.572Z,101944.91
2023-04-18T03:06:50.075Z,101951.09
2023-04-18T03:09:17.929Z,101937.06
2023-04-18T03:11:49.693Z,101939.50
2023-04-18T03:14:19.231Z,101940.66
2023-04-18T03:16:53.883Z,101941.06
2023-04-18T03:19:25.780Z,101944.41
2023-04-18T03:21:54.389Z,101942.47
2023-04-18T03:24:21.919Z,101950.41
2023-04-18T03:26:51.454Z,101942.16
2023-04-18T03:29:21.704Z,101940.25
2023-04-18T03:31:48.389Z,101937.09
2023-04-18T03:34:15.389Z,101951.75
2023-04-18T03:36:44.510Z,101951.94
2023-04-18T03:39:11.953Z,101947.88
2023-04-18T03:41:38.688Z,101946.91
2023-04-18T03:44:05.476Z,101959.53
2023-04-18T03:46:35.341Z,101958.97
2023-04-18T03:49:02.682Z,101959.28
2023-04-18T03:51:34.432Z,101960.97
2023-04-18T03:54:01.554Z,101970.22
2023-04-18T03:56:28.147Z,101966.97
2023-04-18T03:58:55.559Z,101960.47
2023-04-18T04:01:22.661Z,101967.19
2023-04-18T04:03:51.569Z,101978.75
2023-04-18T04:06:18.393Z,101967.50
2023-04-18T04:08:44.994Z,101976.34
2023-04-18T04:11:11.940Z,101974.72
2023-04-18T04:13:39.226Z,101969.88
2023-04-18T04:16:06.987Z,101966.31
2023-04-18T04:18:33.642Z,101965.63
2023-04-18T04:21:03.410Z,101967.78
2023-04-18T04:23:44.063Z,101970.44
2023-04-18T04:26:23.073Z,101979.31
2023-04-18T04:28:57.998Z,101975.84
2023-04-18T04:31:27.273Z,101986.53
2023-04-18T04:33:53.864Z,101982.41
2023-04-18T04:36:23.010Z,101980.56
2023-04-18T04:38:52.219Z,101977.50
2023-04-18T04:41:22.993Z,101981.38
2023-04-18T04:43:51.107Z,101984.31
2023-04-18T04:46:20.440Z,101985.97
2023-04-18T04:48:49.662Z,101991.00
2023-04-18T04:51:16.225Z,101989.63
2023-04-18T04:53:42.792Z,101984.38
2023-04-18T04:56:09.528Z,101990.41
2023-04-18T04:58:36.798Z,101989.28
2023-04-18T05:01:14.545Z,101983.72
2023-04-18T05:03:41.366Z,101996.09
2023-04-18T05:06:08.105Z,101996.25
2023-04-18T05:08:34.769Z,102012.16
2023-04-18T05:11:01.882Z,102005.56
2023-04-18T05:13:28.420Z,102009.03
2023-04-18T05:15:54.980Z,102018.81
2023-04-18T05:18:21.551Z,102023.53
2023-04-18T05:20:48.091Z,102023.75
2023-04-18T05:23:14.615Z,102015.13
2023-04-18T05:25:41.407Z,102018.94
2023-04-18T05:28:08.370Z,102020.66
2023-04-18T05:30:34.968Z,102021.06
2023-04-18T05:33:01.670Z,102017.03
2023-04-18T05:35:28.328Z,102026.25
2023-04-18T05:37:54.896Z,102021.97
2023-04-18T05:40:21.604Z,102019.69
2023-04-18T05:42:48.171Z,102020.56
2023-04-18T05:45:17.770Z,102027.75
2023-04-18T05:47:44.422Z,102022.78
2023-04-18T05:50:14.128Z,102027.97
2023-04-18T05:52:40.700Z,102020.66
2023-04-18T05:55:07.827Z,102028.13
2023-04-18T05:57:34.476Z,102022.22
2023-04-18T06:00:01.084Z,102023.44
2023-04-18T06:02:27.825Z,102029.47
2023-04-18T06:04:54.829Z,102036.19
2023-04-18T06:07:23.300Z,102023.84
2023-04-18T06:09:49.980Z,102036.03
2023-04-18T06:12:16.611Z,102037.72
2023-04-18T06:14:43.160Z,102042.91
2023-04-18T06:17:12.471Z,102045.47
2023-04-18T06:19:39.583Z,102055.94
2023-04-18T06:22:06.314Z,102054.47
2023-04-18T06:24:32.898Z,102049.91
2023-04-18T06:26:59.639Z,102047.03
2023-04-18T06:29:30.248Z,102045.13
2023-04-18T06:31:59.212Z,102045.69
2023-04-18T06:34:25.848Z,102054.75
2023-04-18T06:36:52.673Z,102052.38
2023-04-18T06:39:19.259Z,102053.38
2023-04-18T06:41:45.763Z,102054.66
2023-04-18T06:44:19.652Z,102056.38
2023-04-18T06:46:46.357Z,102061.69
2023-04-18T06:49:12.907Z,102063.91
2023-04-18T06:51:39.441Z,102064.63
2023-04-18T06:54:05.995Z,102068.63
2023-04-18T06:56:35.048Z,102069.38
2023-04-18T06:59:03.092Z,102066.84
2023-04-18T07:01:33.123Z,102070.56
2023-04-18T07:03:59.789Z,102067.09
2023-04-18T07:06:26.752Z,102060.56
2023-04-18T07:08:55.870Z,102069.88
2023-04-18T07:11:23.562Z,102076.84
2023-04-18T07:13:50.391Z,102073.78
2023-04-18T07:16:17.136Z,102082.16
2023-04-18T07:18:43.803Z,102085.41
2023-04-18T07:21:10.893Z,102076.47
2023-04-18T07:23:37.726Z,102083.88
2023-04-18T07:26:05.730Z,102075.28
2023-04-18T07:28:32.998Z,102068.91
2023-04-18T07:31:01.137Z,102059.97
2023-04-18T07:33:31.549Z,102065.53
2023-04-18T07:35:58.150Z,102082.81
2023-04-18T07:38:24.829Z,102071.53
2023-04-18T07:41:01.656Z,102090.50
2023-04-18T07:43:28.219Z,102088.06
2023-04-18T07:45:55.150Z,102091.59
2023-04-18T07:48:22.408Z,102091.88
2023-04-18T07:50:49.421Z,102092.88
2023-04-18T07:53:15.971Z,102088.84
2023-04-18T07:55:43.331Z,102083.84
2023-04-18T07:58:10.103Z,102084.94
2023-04-18T08:00:39.173Z,102095.00
2023-04-18T08:03:07.654Z,102087.53
2023-04-18T08:05:34.492Z,102090.91
2023-04-18T08:08:01.291Z,102084.16
2023-04-18T08:10:28.100Z,102082.84
2023-04-18T08:12:54.724Z,102088.75
2023-04-18T08:15:21.258Z,102085.41
2023-04-18T08:17:49.123Z,102079.59
2023-04-18T08:20:15.805Z,102084.38
2023-04-18T08:23:01.390Z,102082.50
2023-04-18T08:25:29.166Z,102093.91
2023-04-18T08:27:55.927Z,102090.75
2023-04-18T08:30:22.482Z,102090.56
2023-04-18T08:32:49.686Z,102100.09
2023-04-18T08:35:16.438Z,102098.34
2023-04-18T08:37:43.377Z,102089.09
2023-04-18T08:40:10.798Z,102097.00
2023-04-18T08:42:38.703Z,102084.56
2023-04-18T08:45:06.809Z,102095.00
2023-04-18T08:47:35.372Z,102093.56
2023-04-18T08:50:02.186Z,102094.13
2023-04-18T08:52:30.914Z,102100.00
2023-04-18T08:54:57.511Z,102099.00
2023-04-18T08:57:26.577Z,102092.41
2023-04-18T08:59:54.029Z,102098.59
2023-04-18T09:02:24.287Z,102093.53
2023-04-18T09:04:53.627Z,102096.53
2023-04-18T09:07:31.070Z,102093.13
2023-04-18T09:09:58.164Z,102099.06
2023-04-18T09:12:26.779Z,102097.41
2023-04-18T09:15:09.341Z,102101.81
2023-04-18T09:17:38.050Z,102095.34
2023-04-18T09:20:06.246Z,102099.38
2023-04-18T09:22:53.344Z,102090.59
2023-04-18T09:25:27.359Z,102103.56
2023-04-18T09:27:54.100Z,102102.75
2023-04-18T09:30:34.112Z,102103.09
2023-04-18T09:33:01.739Z,102114.31
2023-04-18T09:35:28.510Z,102096.59
2023-04-18T09:37:55.495Z,102100.53
2023-04-18T09:40:23.587Z,102094.41
2023-04-18T09:42:53.604Z,102100.66
2023-04-18T09:45:21.272Z,102115.78
2023-04-18T09:47:48.028Z,102106.09
2023-04-18T09:50:16.806Z,102110.81
2023-04-18T09:52:45.153Z,102113.78
2023-04-18T09:55:15.215Z,102113.00
2023-04-18T09:57:44.780Z,102119.66
2023-04-18T10:00:20.103Z,102114.00
2023-04-18T10:03:04.996Z,102108.69
2023-04-18T10:05:34.997Z,102110.69
2023-04-18T10:08:03.118Z,102118.63
2023-04-18T10:10:29.875Z,102119.00
2023-04-18T10:12:58.404Z,102122.25
2023-04-18T10:15:27.397Z,102120.28
2023-04-18T10:18:04.282Z,102115.28
2023-04-18T10:20:34.980Z,102110.91
2023-04-18T10:23:30.831Z,102121.03
2023-04-18T10:26:01.547Z,102116.09
2023-04-18T10:28:53.094Z,102113.88
2023-04-18T10:31:22.581Z,102104.41
2023-04-18T10:34:03.328Z,102109.09
2023-04-18T10:36:31.065Z,102106.47
2023-04-18T10:39:02.916Z,102114.00
2023-04-18T10:41:31.746Z,102107.91
2023-04-18T10:44:08.483Z,102101.81
2023-04-18T10:46:50.788Z,102093.91
2023-04-18T10:49:30.313Z,102089.31
2023-04-18T10:52:00.263Z,102090.00
2023-04-18T10:54:47.598Z,102090.19
2023-04-18T10:57:15.215Z,102090.75
2023-04-18T10:59:43.757Z,102093.06
2023-04-18T11:02:22.893Z,102092.84
2023-04-18T11:04:55.159Z,102085.72
2023-04-18T11:07:38.325Z,102081.94
2023-04-18T11:10:07.170Z,102076.41
2023-04-18T11:12:38.367Z,102075.28
2023-04-18T11:15:24.917Z,102070.72
2023-04-18T11:17:58.174Z,102070.91
2023-04-18T11:20:25.043Z,102071.50
2023-04-18T11:23:00.746Z,102071.00
2023-04-18T11:25:30.229Z,102073.81
2023-04-18T11:27:58.812Z,102069.38
2023-04-18T11:30:25.708Z,102065.41
2023-04-18T11:32:52.420Z,102064.91
2023-04-18T11:35:19.097Z,102066.25
2023-04-18T11:37:45.904Z,102057.16
2023-04-18T11:40:16.299Z,102057.25
2023-04-18T11:42:42.931Z,102059.63
2023-04-18T11:45:14.263Z,102057.47
2023-04-18T11:47:44.840Z,102056.97
2023-04-18T11:50:13.370Z,102057.22
2023-04-18T11:52:42.265Z,102062.13
2023-04-18T11:55:21.587Z,102060.03
2023-04-18T11:57:56.063Z,102063.97
2023-04-18T12:00:39.233Z,102071.38
2023-04-18T12:03:08.518Z,102066.00
2023-04-18T12:05:38.321Z,102060.09
2023-04-18T12:08:09.884Z,102066.16
2023-04-18T12:10:36.564Z,102068.75
2023-04-18T12:13:08.033Z,102064.19
2023-04-18T12:15:39.275Z,102074.22
2023-04-18T12:18:09.843Z,102068.16
2023-04-18T12:20:46.695Z,102063.38
2023-04-18T12:23:36.730Z,102061.72
2023-04-18T12:26:04.194Z,102052.97
2023-04-18T12:28:31.650Z,102059.91
2023-04-18T12:30:59.014Z,102060.09
2023-04-18T12:33:26.259Z,102067.28
2023-04-18T12:35:53.472Z,102066.13
2023-04-18T12:38:22.139Z,102059.03
2023-04-18T12:40:50.126Z,102062.91
2023-04-18T12:43:17.685Z,102055.44
2023-04-18T12:45:46.048Z,102059.69
2023-04-18T12:48:13.193Z,102065.75
2023-04-18T12:50:39.805Z,102059.59
2023-04-18T12:53:06.688Z,102058.44
2023-04-18T12:55:33.312Z,102058.94
2023-04-18T12:57:59.951Z,102052.59
2023-04-18T13:00:29.254Z,102058.72
2023-04-18T13:02:56.420Z,102055.72
2023-04-18T13:05:27.017Z,102046.41
2023-04-18T13:08:04.825Z,102055.31
2023-04-18T13:10:39.721Z,102053.50
2023-04-18T13:13:06.313Z,102055.75
2023-04-18T13:15:32.978Z,102053.00
2023-04-18T13:18:04.542Z,102053.00
2023-04-18T13:20:32.535Z,102056.47
2023-04-18T13:22:59.118Z,102065.06
2023-04-18T13:25:26.589Z,102056.47
2023-04-18T13:27:53.372Z,102050.97
2023-04-18T13:30:20.048Z,102062.31
2023-04-18T13:32:47.032Z,102059.03
2023-04-18T13:35:13.691Z,102055.56
2023-04-18T13:37:40.243Z,102066.53
2023-04-18T13:40:07.754Z,102058.19
2023-04-18T13:42:35.662Z,102063.50
2023-04-18T13:45:03.165Z,102059.06
2023-04-18T13:47:30.033Z,102061.63
2023-04-18T13:49:57.658Z,102062.03
2023-04-18T13:52:24.556Z,102053.63
2023-04-18T13:54:51.084Z,102061.09
2023-04-18T13:57:17.624Z,102055.25
2023-04-18T13:59:44.168Z,102058.16
2023-04-18T14:02:11.288Z,102060.13
2023-04-18T14:04:38.239Z,102057.28
2023-04-18T14:07:06.244Z,102055.94
2023-04-18T14:09:33.149Z,102058.66
2023-04-18T14:11:59.855Z,102053.88
2023-04-18T14:14:26.380Z,102051.91
2023-04-18T14:16:53.687Z,102054.47
2023-04-18T14:19:20.405Z,102055.00
2023-04-18T14:21:50.980Z,102045.25
2023-04-18T14:24:17.657Z,102044.53
2023-04-18T14:26:44.254Z,102043.28
2023-04-18T14:29:11.137Z,102040.03
2023-04-18T14:31:37.873Z,102048.63
2023-04-18T14:34:04.731Z,102040.59
2023-04-18T14:36:31.879Z,102058.97
2023-04-18T14:38:59.110Z,102047.00
2023-04-18T14:41:25.689Z,102041.84
2023-04-18T14:43:52.303Z,102038.31
2023-04-18T14:46:20.964Z,102041.06
2023-04-18T14:48:47.602Z,102034.94
2023-04-18T14:51:17.469Z,102043.50
2023-04-18T14:53:44.816Z,102040.94
2023-04-18T14:56:11.807Z,102036.31
2023-04-18T14:58:38.403Z,102028.97
2023-04-18T15:01:05.720Z,102024.53
2023-04-18T15:03:32.508Z,102023.22
2023-04-18T15:05:59.275Z,102024.69
2023-04-18T15:08:25.908Z,102022.56
2023-04-18T15:10:52.454Z,102017.41
2023-04-18T15:13:19.472Z,102015.91
2023-04-18T15:15:53.222Z,102016.78
2023-04-18T15:18:20.114Z,102016.78
2023-04-18T15:20:47.471Z,102019.53
2023-04-18T15:23:14.464Z,102014.19
2023-04-18T15:25:42.172Z,102028.22
2023-04-18T15:28:08.878Z,102022.19
2023-04-18T15:30:35.656Z,102024.22
2023-04-18T15:33:02.752Z,102021.13
2023-04-18T15:35:29.423Z,102015.56
2023-04-18T15:37:57.308Z,102018.31
2023-04-18T15:40:24.051Z,102010.63
2023-04-18T15:42:53.435Z,102010.94
2023-04-18T15:45:20.912Z,102017.22
2023-04-18T15:47:47.730Z,102016.25
2023-04-18T15:50:15.880Z,102011.28
2023-04-18T15:52:42.568Z,102006.56
2023-04-18T15:55:11.369Z,102014.50
2023-04-18T15:57:38.036Z,102007.06
2023-04-18T16:00:11.115Z,102011.28
2023-04-18T16:02:37.881Z,102002.09
2023-04-18T16:05:05.012Z,102007.78
2023-04-18T16:07:31.651Z,102006.69
2023-04-18T16:09:58.224Z,102008.06
2023-04-18T16:12:24.773Z,102011.56
2023-04-18T16:14:52.032Z,102010.63
2023-04-18T16:17:18.638Z,102011.06
2023-04-18T16:19:45.186Z,102015.94
2023-04-18T16:22:12.369Z,102011.66
2023-04-18T16:24:40.861Z,102003.34
2023-04-18T16:27:08.570Z,102020.00
2023-04-18T16:29:35.372Z,102010.50
2023-04-18T16:32:02.907Z,102019.75
2023-04-18T16:34:29.547Z,102020.50
2023-04-18T16:36:56.137Z,102020.59
2023-04-18T16:39:22.797Z,102017.69
2023-04-18T16:41:49.546Z,102017.81
2023-04-18T16:44:16.424Z,102019.63
2023-04-18T16:46:43.202Z,102016.94
2023-04-18T16:49:09.856Z,102010.94
2023-04-18T16:51:37.712Z,102011.06
2023-04-18T16:54:06.028Z,102016.44
2023-04-18T16:56:32.552Z,102017.03
2023-04-18T16:58:59.219Z,102013.00
2023-04-18T17:01:25.851Z,102014.00
2023-04-18T17:03:52.522Z,102014.50
2023-04-18T17:06:19.409Z,102003.50
2023-04-18T17:08:46.152Z,102011.28
2023-04-18T17:11:12.660Z,102015.06
2023-04-18T17:13:39.262Z,102012.56
2023-04-18T17:16:06.885Z,102010.53
2023-04-18T17:18:33.448Z,102016.44
2023-04-18T17:21:00.001Z,102013.34
2023-04-18T17:23:26.773Z,102022.88
2023-04-18T17:25:53.337Z,102024.78
2023-04-18T17:28:21.126Z,102030.22
2023-04-18T17:30:47.803Z,102025.34
2023-04-18T17:33:14.354Z,102021.69
2023-04-18T17:35:51.813Z,102027.69
2023-04-18T17:38:25.439Z,102036.59
2023-04-18T17:41:02.351Z,102030.00
2023-04-18T17:43:28.997Z,102042.59
2023-04-18T17:45:55.898Z,102031.91
2023-04-18T17:48:22.644Z,102036.66
2023-04-18T17:50:49.155Z,102031.38
2023-04-18T17:53:15.794Z,102034.78
2023-04-18T17:55:42.460Z,102042.81
2023-04-18T17:58:09.250Z,102049.00
2023-04-18T18:00:35.952Z,102051.28
2023-04-18T18:03:03.444Z,102044.28
2023-04-18T18:05:30.715Z,102052.84
2023-04-18T18:07:57.599Z,102042.66
2023-04-18T18:10:24.991Z,102049.00
2023-04-18T18:12:51.626Z,102049.41
2023-04-18T18:15:18.554Z,102053.69
2023-04-18T18:17:45.138Z,102062.75
2023-04-18T18:20:14.835Z,102060.72
2023-04-18T18:22:41.564Z,102063.44
2023-04-18T18:25:08.596Z,102060.91
2023-04-18T18:27:35.991Z,102061.63
2023-04-18T18:30:03.201Z,102062.63
2023-04-18T18:32:29.825Z,102060.81
2023-04-18T18:34:56.373Z,102056.31
2023-04-18T18:37:25.413Z,102057.25
2023-04-18T18:39:54.213Z,102066.25
2023-04-18T18:42:20.812Z,102060.88
2023-04-18T18:44:47.337Z,102069.50
2023-04-18T18:47:13.924Z,102076.91
2023-04-18T18:49:40.748Z,102076.31
2023-04-18T18:52:07.221Z,102078.88
2023-04-18T18:54:34.283Z,102080.59
2023-04-18T18:57:03.783Z,102072.88
2023-04-18T18:59:30.487Z,102083.84
2023-04-18T19:01:57.075Z,102084.81
2023-04-18T19:04:24.354Z,102079.66
2023-04-18T19:06:51.195Z,102089.06
2023-04-18T19:09:17.842Z,102088.63
2023-04-18T19:11:44.376Z,102086.00
2023-04-18T19:14:11.976Z,102085.34
2023-04-18T19:16:38.721Z,102085.25
2023-04-18T19:19:05.340Z,102088.47
2023-04-18T19:21:31.944Z,102095.41
2023-04-18T19:23:58.525Z,102085.22
2023-04-18T19:26:25.079Z,102078.78
2023-04-18T19:28:51.692Z,102087.09
2023-04-18T19:31:18.855Z,102094.84
2023-04-18T19:33:45.937Z,102089.53
2023-04-18T19:36:12.543Z,102092.03
2023-04-18T19:38:39.064Z,102093.53
2023-04-18T19:41:05.634Z,102101.22
2023-04-18T19:43:32.288Z,102098.09
2023-04-18T19:45:59.214Z,102104.28
2023-04-18T19:48:26.560Z,102100.59
2023-04-18T19:50:53.205Z,102099.88
2023-04-18T19:53:20.427Z,102090.91
2023-04-18T19:55:46.994Z,102107.22
2023-04-18T19:58:34.366Z,102093.66
2023-04-18T20:01:02.517Z,102091.78
2023-04-18T20:03:29.219Z,102092.63
2023-04-18T20:05:56.074Z,102090.63
2023-04-18T20:08:22.725Z,102093.91
2023-04-18T20:10:49.289Z,102095.00
2023-04-18T20:13:15.838Z,102093.13
2023-04-18T20:15:44.825Z,102100.84
2023-04-18T20:18:11.873Z,102089.84
2023-04-18T20:20:38.579Z,102095.06
2023-04-18T20:23:05.358Z,102092.50
2023-04-18T20:25:34.057Z,102093.41
2023-04-18T20:28:00.747Z,102086.09
2023-04-18T20:30:29.609Z,102090.34
2023-04-18T20:32:56.335Z,102096.56
2023-04-18T20:35:22.925Z,102086.91
2023-04-18T20:37:50.184Z,102082.53
2023-04-18T20:40:16.749Z,102088.50
2023-04-18T20:42:43.300Z,102087.09
2023-04-18T20:45:11.030Z,102085.53
2023-04-18T20:47:41.344Z,102083.03
2023-04-18T20:50:08.836Z,102084.25
2023-04-18T20:52:35.429Z,102088.97
2023-04-18T20:55:02.157Z,102084.22
2023-04-18T20:57:28.759Z,102091.00
2023-04-18T20:59:58.513Z,102093.63
2023-04-18T21:02:26.400Z,102092.22
2023-04-18T21:04:53.276Z,102087.88
2023-04-18T21:07:21.078Z,102093.56
2023-04-18T21:09:47.637Z,102099.03
2023-04-18T21:12:14.199Z,102095.34
2023-04-18T21:14:40.790Z,102099.94
2023-04-18T21:17:09.532Z,102100.25
2023-04-18T21:19:36.663Z,102101.44
2023-04-18T21:22:03.221Z,102096.88
2023-04-18T21:24:29.816Z,102098.47
2023-04-18T21:26:57.726Z,102100.03
2023-04-18T21:29:24.289Z,102090.84
2023-04-18T21:31:51.532Z,102095.28
2023-04-18T21:34:18.288Z,102096.03
2023-04-18T21:36:44.882Z,102096.53
2023-04-18T21:39:11.392Z,102087.38
2023-04-18T21:41:38.179Z,102090.03
2023-04-18T21:44:04.806Z,102090.28
2023-04-18T21:46:31.349Z,102083.25
2023-04-18T21:48:57.880Z,102079.81
2023-04-18T21:51:24.440Z,102092.69
2023-04-18T21:53:50.974Z,102087.53
2023-04-18T21:56:17.545Z,102095.50
2023-04-18T21:58:44.172Z,102097.50
2023-04-18T22:01:10.860Z,102090.28
2023-04-18T22:03:38.023Z,102092.63
2023-04-18T22:06:04.897Z,102093.78
2023-04-18T22:08:31.597Z,102085.59
2023-04-18T22:11:00.237Z,102089.06
2023-04-18T22:13:32.950Z,102090.53
2023-04-18T22:16:03.358Z,102080.38
2023-04-18T22:18:33.546Z,102083.84
2023-04-18T22:21:02.356Z,102094.78
2023-04-18T22:23:30.024Z,102092.88
2023-04-18T22:25:56.644Z,102099.16
2023-04-18T22:28:23.597Z,102085.81
2023-04-18T22:30:50.771Z,102091.50
2023-04-18T22:33:17.399Z,102089.72
2023-04-18T22:35:44.072Z,102082.69
2023-04-18T22:38:10.822Z,102085.81
2023-04-18T22:40:37.382Z,102079.03
2023-04-18T22:43:03.929Z,102085.81
2023-04-18T22:45:30.656Z,102084.97
2023-04-18T22:47:57.216Z,102085.91
2023-04-18T22:50:23.840Z,102090.97
2023-04-18T22:52:50.981Z,102085.81
2023-04-18T22:55:17.612Z,102089.25
2023-04-18T22:57:44.140Z,102091.13
2023-04-18T23:00:11.453Z,102080.59
2023-04-18T23:02:38.165Z,102089.44
2023-04-18T23:05:07.260Z,102088.97
2023-04-18T23:07:33.843Z,102077.75
2023-04-18T23:10:00.520Z,102084.69
2023-04-18T23:12:27.710Z,102088.75
2023-04-18T23:14:54.229Z,102091.03
2023-04-18T23:17:20.913Z,102083.91
2023-04-18T23:19:47.486Z,102090.03
2023-04-18T23:22:14.029Z,102088.69
2023-04-18T23:24:40.556Z,102084.59
2023-04-18T23:27:07.106Z,102095.34
2023-04-18T23:29:38.248Z,102084.09
2023-04-18T23:32:05.798Z,102086.13
2023-04-18T23:34:32.389Z,102087.69
2023-04-18T23:36:59.339Z,102086.41
2023-04-18T23:39:26.590Z,102082.31
2023-04-18T23:41:53.138Z,102083.53
2023-04-18T23:44:19.811Z,102082.22
2023-04-18T23:46:47.191Z,102082.44
2023-04-18T23:49:14.260Z,102071.47
2023-04-18T23:51:40.817Z,102077.59
2023-04-18T23:54:07.596Z,102083.81
2023-04-18T23:56:34.614Z,102085.16
2023-04-18T23:59:01.243Z,102071.34
